Time;durP1;ratioP1;P1;durP2;ratioP2;P2;SDS_P1;SDS_P2;PMS_P1;PMS_P2;Temp;Humidity;BMP_temperature;BMP_pressure;BME280_temperature;BME280_humidity;BME280_pressure;Samples;Min_cycle;Max_cycle;Signal;HPM_P1;HPM_P2
2022/05/20 00:00:52;;;;;;;25.30;12.82;;;;;;;;;;6328668;28;20070;-81
2022/05/20 00:03:54;;;;;;;20.73;11.98;;;;;;;;;;6344085;28;20044;-81
2022/05/20 00:06:55;;;;;;;27.83;12.80;;;;;;;;;;6329290;28;20448;-81
2022/05/20 00:09:57;;;;;;;20.67;13.40;;;;;;;;;;6347441;28;20100;-81
2022/05/20 00:13:00;;;;;;;30.25;12.55;;;;;;;;;;6335931;28;20643;-81
2022/05/20 00:16:02;;;;;;;29.25;13.88;;;;;;;;;;6321519;28;20127;-82
2022/05/20 00:19:06;;;;;;;38.95;14.00;;;;;;;;;;6328106;28;20048;-81
2022/05/20 00:22:13;;;;;;;41.15;13.77;;;;;;;;;;6327705;28;20226;-82
2022/05/20 00:28:38;;;;;;;51.20;14.40;;;;;;;;;;6342679;28;20047;-82
2022/05/20 00:31:39;;;;;;;41.78;13.82;;;;;;;;;;6344548;28;20063;-81
2022/05/20 00:34:41;;;;;;;52.05;13.70;;;;;;;;;;6305272;28;20051;-81
2022/05/20 00:37:44;;;;;;;43.38;14.88;;;;;;;;;;6319535;28;20067;-82
2022/05/20 00:40:47;;;;;;;39.03;14.65;;;;;;;;;;6298766;28;20040;-81
2022/05/20 00:43:50;;;;;;;45.15;13.82;;;;;;;;;;6319582;28;20052;-82
2022/05/20 00:46:52;;;;;;;33.33;14.35;;;;;;;;;;6319209;28;20120;-81
2022/05/20 00:49:56;;;;;;;47.92;13.50;;;;;;;;;;6313067;28;20469;-82
2022/05/20 00:52:58;;;;;;;37.67;13.70;;;;;;;;;;6319410;28;20121;-82
2022/05/20 00:56:03;;;;;;;34.78;12.98;;;;;;;;;;6319431;28;20047;-82
2022/05/20 00:59:08;;;;;;;51.22;14.80;;;;;;;;;;6318528;28;20101;-81
2022/05/20 01:02:21;;;;;;;54.78;14.98;;;;;;;;;;6320034;28;20066;-82
2022/05/20 01:05:31;;;;;;;41.50;14.88;;;;;;;;;;6318683;28;20051;-82
2022/05/20 01:08:36;;;;;;;44.17;14.40;;;;;;;;;;6322326;28;20036;-82
2022/05/20 01:11:39;;;;;;;45.97;14.20;;;;;;;;;;6301323;28;20048;-82
2022/05/20 01:14:40;;;;;;;49.15;13.30;;;;;;;;;;6322705;28;20101;-82
2022/05/20 01:17:44;;;;;;;36.80;12.98;;;;;;;;;;6321918;28;20043;-82
2022/05/20 01:20:46;;;;;;;;;;;;;;;;;;6320438;28;20052;-83
2022/05/20 01:23:48;;;;;;;58.63;13.63;;;;;;;;;;6302506;28;19920;-82
2022/05/20 01:26:50;;;;;;;56.95;13.05;;;;;;;;;;6297287;28;20081;-83
2022/05/20 01:29:52;;;;;;;51.88;13.13;;;;;;;;;;6289867;28;20080;-82
2022/05/20 01:32:54;;;;;;;38.75;12.43;;;;;;;;;;6275781;28;20086;-82
2022/05/20 01:35:56;;;;;;;41.67;14.13;;;;;;;;;;6315309;28;20072;-82
2022/05/20 01:38:59;;;;;;;35.75;13.48;;;;;;;;;;6291054;28;20108;-83
2022/05/20 01:42:10;;;;;;;;;;;;;;;;;;6300792;28;20110;-83
2022/05/20 01:45:26;;;;;;;49.22;12.38;;;;;;;;;;6276343;28;19925;-81
2022/05/20 01:48:53;;;;;;;40.20;12.68;;;;;;;;;;6317499;28;20036;-82
2022/05/20 01:52:03;;;;;;;38.17;12.45;;;;;;;;;;6317885;28;20045;-82
2022/05/20 01:55:12;;;;;;;33.80;11.52;;;;;;;;;;6300091;28;20118;-82
2022/05/20 01:58:32;;;;;;;33.65;12.30;;;;;;;;;;6282178;28;20048;-82
2022/05/20 02:01:38;;;;;;;25.27;12.73;;;;;;;;;;6314221;28;20044;-82
2022/05/20 02:04:51;;;;;;;27.15;13.50;;;;;;;;;;6283067;28;20040;-81
2022/05/20 02:08:00;;;;;;;40.65;13.98;;;;;;;;;;6301479;28;20048;-81
2022/05/20 02:11:20;;;;;;;35.42;14.10;;;;;;;;;;6316546;28;20690;-82
2022/05/20 02:15:00;;;;;;;33.95;13.98;;;;;;;;;;6307438;28;20064;-82
2022/05/20 02:18:05;;;;;;;29.67;12.88;;;;;;;;;;6272043;28;20052;-82
2022/05/20 02:21:11;;;;;;;33.40;13.50;;;;;;;;;;6306562;28;20574;-81
2022/05/20 02:24:18;;;;;;;31.42;12.75;;;;;;;;;;6305186;28;20056;-81
2022/05/20 02:27:26;;;;;;;33.70;12.57;;;;;;;;;;6299352;28;20051;-82
2022/05/20 02:30:32;;;;;;;73.72;13.50;;;;;;;;;;6299524;28;20044;-83
2022/05/20 02:33:34;;;;;;;63.65;11.75;;;;;;;;;;6308016;28;20060;-83
2022/05/20 02:36:35;;;;;;;93.20;12.77;;;;;;;;;;6326232;28;20101;-83
2022/05/20 02:39:37;;;;;;;36.53;11.20;;;;;;;;;;6326027;28;20040;-83
2022/05/20 02:42:39;;;;;;;28.75;11.25;;;;;;;;;;6309267;28;20045;-83
2022/05/20 02:45:43;;;;;;;27.40;10.02;;;;;;;;;;6299753;28;20063;-82
2022/05/20 02:48:44;;;;;;;23.00;9.52;;;;;;;;;;6299481;28;20052;-82
2022/05/20 02:51:47;;;;;;;28.42;10.50;;;;;;;;;;6298875;28;20044;-81
2022/05/20 02:54:48;;;;;;;24.17;10.53;;;;;;;;;;6294078;28;20114;-82
2022/05/20 02:57:50;;;;;;;42.50;11.85;;;;;;;;;;6295531;28;20896;-83
2022/05/20 03:04:12;;;;;;;32.67;10.85;;;;;;;;;;6309277;28;20083;-81
2022/05/20 03:07:14;;;;;;;35.90;10.70;;;;;;;;;;6297675;28;20425;-83
2022/05/20 03:10:16;;;;;;;20.00;10.35;;;;;;;;;;6297458;28;20067;-83
2022/05/20 03:13:18;;;;;;;20.55;10.00;;;;;;;;;;6297357;28;20045;-82
2022/05/20 03:16:19;;;;;;;20.53;9.80;;;;;;;;;;6297202;28;20052;-83
2022/05/20 03:19:21;;;;;;;29.83;11.38;;;;;;;;;;6319534;28;20129;-84
2022/05/20 03:22:23;;;;;;;24.75;10.88;;;;;;;;;;6311674;28;20071;-84
2022/05/20 03:25:25;;;;;;;23.40;11.05;;;;;;;;;;6296500;28;20048;-83
2022/05/20 03:28:26;;;;;;;31.60;10.93;;;;;;;;;;6318874;28;20520;-84
2022/05/20 03:31:29;;;;;;;18.40;9.30;;;;;;;;;;6317829;28;20127;-83
2022/05/20 03:34:31;;;;;;;15.50;8.85;;;;;;;;;;6320477;28;20046;-82
2022/05/20 03:37:32;;;;;;;15.07;8.65;;;;;;;;;;6321506;28;20448;-83
2022/05/20 03:40:35;;;;;;;14.32;8.95;;;;;;;;;;6306484;28;20055;-82
2022/05/20 03:43:37;;;;;;;18.17;10.02;;;;;;;;;;6294563;28;20044;-83
2022/05/20 03:46:41;;;;;;;19.65;10.40;;;;;;;;;;6296911;28;20644;-83
2022/05/20 03:49:43;;;;;;;14.40;9.20;;;;;;;;;;6292534;28;20102;-83
2022/05/20 03:52:44;;;;;;;16.80;9.68;;;;;;;;;;6298151;28;20104;-84
2022/05/20 03:55:46;;;;;;;16.02;9.68;;;;;;;;;;6295794;28;20040;-84
2022/05/20 03:58:48;;;;;;;16.20;9.90;;;;;;;;;;6307845;28;20449;-84
2022/05/20 04:01:58;;;;;;;13.93;9.73;;;;;;;;;;6306399;28;20082;-83
2022/05/20 04:05:01;;;;;;;15.05;9.65;;;;;;;;;;6320289;28;20060;-83
2022/05/20 04:08:02;;;;;;;15.95;9.20;;;;;;;;;;6307035;28;20490;-85
2022/05/20 04:11:06;;;;;;;15.55;8.93;;;;;;;;;;6310555;28;20059;-81
2022/05/20 04:14:08;;;;;;;16.13;10.05;;;;;;;;;;6330451;28;20044;-81
2022/05/20 04:17:10;;;;;;;17.50;10.38;;;;;;;;;;6332842;28;20075;-82
2022/05/20 04:20:11;;;;;;;17.45;10.38;;;;;;;;;;6328219;28;20146;-81
2022/05/20 04:23:16;;;;;;;20.65;11.30;;;;;;;;;;6317275;28;20045;-84
2022/05/20 04:26:18;;;;;;;15.45;9.85;;;;;;;;;;6308999;28;20060;-82
2022/05/20 04:29:19;;;;;;;15.07;9.25;;;;;;;;;;6325455;28;20051;-83
2022/05/20 04:32:22;;;;;;;16.30;9.07;;;;;;;;;;6305583;28;20044;-82
2022/05/20 04:35:24;;;;;;;15.23;8.83;;;;;;;;;;6322119;28;20044;-82
2022/05/20 04:38:27;;;;;;;26.85;9.93;;;;;;;;;;6321959;28;20470;-84
2022/05/20 04:48:09;;;;;;;15.32;9.75;;;;;;;;;;6300149;28;20123;-85
2022/05/20 04:51:10;;;;;;;17.70;11.00;;;;;;;;;;6325178;28;20047;-84
2022/05/20 04:57:52;;;;;;;12.70;8.25;;;;;;;;;;6319172;28;20071;-85
2022/05/20 05:00:54;;;;;;;12.23;8.98;;;;;;;;;;6319865;28;20043;-86
2022/05/20 05:03:56;;;;;;;13.00;8.85;;;;;;;;;;6318106;28;20048;-84
2022/05/20 05:06:58;;;;;;;11.60;8.88;;;;;;;;;;6319132;28;20106;-86
2022/05/20 05:10:00;;;;;;;11.80;8.25;;;;;;;;;;6320238;28;20748;-85
2022/05/20 05:13:02;;;;;;;9.60;7.97;;;;;;;;;;6297732;28;20446;-85
2022/05/20 05:16:07;;;;;;;11.57;8.80;;;;;;;;;;6295296;28;20089;-85
2022/05/20 05:19:09;;;;;;;13.02;8.20;;;;;;;;;;6293869;28;20492;-85
2022/05/20 05:22:12;;;;;;;10.98;8.27;;;;;;;;;;6297173;28;20040;-85
2022/05/20 05:25:14;;;;;;;9.63;7.73;;;;;;;;;;6299270;28;20051;-85
2022/05/20 05:28:16;;;;;;;9.38;7.47;;;;;;;;;;6307307;28;20044;-84
2022/05/20 05:31:18;;;;;;;9.77;8.13;;;;;;;;;;6324431;28;20050;-84
2022/05/20 05:34:20;;;;;;;10.55;8.32;;;;;;;;;;6324250;28;20085;-85
2022/05/20 05:37:21;;;;;;;9.02;7.63;;;;;;;;;;6322655;28;20125;-84
2022/05/20 05:40:29;;;;;;;10.70;8.20;;;;;;;;;;6321856;28;20043;-84
2022/05/20 05:43:31;;;;;;;11.02;7.93;;;;;;;;;;6322563;28;20051;-85
2022/05/20 05:46:33;;;;;;;12.48;8.95;;;;;;;;;;6325093;28;20036;-84
2022/05/20 05:49:34;;;;;;;12.95;9.25;;;;;;;;;;6309830;28;20497;-83
2022/05/20 05:52:37;;;;;;;14.80;9.80;;;;;;;;;;6322176;28;20048;-85
2022/05/20 05:55:40;;;;;;;17.35;10.55;;;;;;;;;;6307436;28;20069;-85
2022/05/20 05:58:41;;;;;;;15.90;10.57;;;;;;;;;;6322861;28;20065;-85
2022/05/20 06:01:43;;;;;;;15.90;10.55;;;;;;;;;;6322179;28;20043;-85
2022/05/20 06:04:45;;;;;;;14.77;9.90;;;;;;;;;;6302993;28;20079;-84
2022/05/20 06:07:47;;;;;;;15.55;10.60;;;;;;;;;;6295095;28;20498;-83
2022/05/20 06:10:48;;;;;;;16.58;10.98;;;;;;;;;;6296786;28;20093;-85
2022/05/20 06:13:50;;;;;;;18.33;12.02;;;;;;;;;;6297591;28;20047;-87
2022/05/20 06:16:52;;;;;;;16.42;10.95;;;;;;;;;;6297614;28;20040;-83
2022/05/20 06:19:53;;;;;;;14.82;10.32;;;;;;;;;;6295275;28;20100;-84
2022/05/20 06:22:57;;;;;;;16.40;10.70;;;;;;;;;;6288621;28;20130;-85
2022/05/20 06:25:58;;;;;;;14.43;10.38;;;;;;;;;;6273660;28;20048;-85
2022/05/20 06:29:18;;;;;;;12.52;9.25;;;;;;;;;;6291202;28;20048;-82
2022/05/20 06:32:20;;;;;;;12.77;9.15;;;;;;;;;;6309194;28;20227;-84
2022/05/20 06:42:02;;;;;;;13.02;9.68;;;;;;;;;;6320008;28;20063;-85
2022/05/20 06:45:05;;;;;;;12.65;9.38;;;;;;;;;;6304175;28;20078;-84
2022/05/20 06:48:07;;;;;;;14.88;9.73;;;;;;;;;;6318145;28;20044;-86
2022/05/20 06:51:11;;;;;;;14.30;9.80;;;;;;;;;;6298111;28;20171;-84
2022/05/20 06:54:12;;;;;;;14.82;10.30;;;;;;;;;;6296484;28;21003;-85
2022/05/20 06:57:19;;;;;;;14.93;10.55;;;;;;;;;;6297933;28;20063;-84
2022/05/20 07:00:20;;;;;;;14.88;10.80;;;;;;;;;;6296638;28;20044;-85
2022/05/20 07:03:25;;;;;;;13.38;9.65;;;;;;;;;;6296085;28;20055;-88
2022/05/20 07:06:30;;;;;;;12.82;9.90;;;;;;;;;;6281436;28;20040;-85
2022/05/20 07:09:33;;;;;;;13.30;10.60;;;;;;;;;;6255022;28;20041;-84
2022/05/20 07:12:34;;;;;;;12.50;9.60;;;;;;;;;;6302054;28;20054;-86
2022/05/20 07:15:37;;;;;;;12.77;9.65;;;;;;;;;;6306254;28;20082;-84
2022/05/20 07:18:39;;;;;;;12.95;10.45;;;;;;;;;;6313211;28;20052;-81
2022/05/20 07:21:41;;;;;;;12.95;9.93;;;;;;;;;;6314166;28;20460;-86
2022/05/20 07:24:43;;;;;;;11.80;9.75;;;;;;;;;;6303781;28;20062;-86
2022/05/20 07:27:45;;;;;;;12.07;10.77;;;;;;;;;;6306057;28;20064;-87
2022/05/20 07:30:47;;;;;;;11.23;9.55;;;;;;;;;;6295472;28;20119;-86
2022/05/20 07:33:49;;;;;;;12.57;10.00;;;;;;;;;;6303187;28;20041;-86
2022/05/20 07:36:51;;;;;;;14.90;10.95;;;;;;;;;;6295774;28;20068;-86
2022/05/20 07:39:53;;;;;;;13.25;10.77;;;;;;;;;;6294829;28;20044;-83
2022/05/20 07:42:54;;;;;;;12.52;10.43;;;;;;;;;;6295800;28;20505;-86
2022/05/20 07:46:01;;;;;;;11.45;10.25;;;;;;;;;;6293733;28;20048;-87
2022/05/20 07:49:03;;;;;;;12.57;10.10;;;;;;;;;;6292533;28;20048;-85
2022/05/20 07:52:07;;;;;;;11.02;9.82;;;;;;;;;;6294428;28;20174;-84
2022/05/20 07:55:09;;;;;;;11.45;9.90;;;;;;;;;;6295746;28;20694;-86
2022/05/20 07:58:14;;;;;;;11.00;9.53;;;;;;;;;;6301468;28;20039;-85
2022/05/20 08:01:19;;;;;;;12.27;9.48;;;;;;;;;;6319697;28;20052;-85
2022/05/20 08:07:48;;;;;;;11.63;9.60;;;;;;;;;;6289749;28;20151;-85
2022/05/20 08:10:50;;;;;;;11.32;10.15;;;;;;;;;;6292992;28;20059;-84
2022/05/20 08:13:52;;;;;;;10.95;9.30;;;;;;;;;;6293590;28;20498;-82
2022/05/20 08:16:56;;;;;;;10.57;9.57;;;;;;;;;;6290376;28;20117;-81
2022/05/20 08:19:58;;;;;;;9.98;8.95;;;;;;;;;;6288866;28;20123;-82
2022/05/20 08:23:00;;;;;;;10.82;9.00;;;;;;;;;;6291259;28;20386;-82
2022/05/20 08:26:02;;;;;;;;;;;;;;;;;;6277597;28;20053;-86
2022/05/20 08:29:04;;;;;;;9.95;8.95;;;;;;;;;;6293714;28;19928;-83
2022/05/20 08:32:12;;;;;;;11.73;9.77;;;;;;;;;;6292227;28;20044;-81
2022/05/20 08:35:15;;;;;;;13.02;9.93;;;;;;;;;;6315944;28;20090;-83
2022/05/20 08:38:17;;;;;;;127.63;59.17;;;;;;;;;;6322751;28;20047;-85
2022/05/20 08:41:25;;;;;;;14.05;10.02;;;;;;;;;;6311582;28;20519;-83
2022/05/20 08:44:27;;;;;;;9.70;8.18;;;;;;;;;;6293150;28;20055;-83
2022/05/20 08:47:42;;;;;;;14.10;9.90;;;;;;;;;;6278526;28;20096;-83
2022/05/20 08:50:50;;;;;;;11.82;9.07;;;;;;;;;;6290704;28;20068;-81
2022/05/20 08:53:52;;;;;;;11.52;9.13;;;;;;;;;;6290802;28;20131;-80
2022/05/20 08:56:54;;;;;;;11.00;9.60;;;;;;;;;;6286716;28;20492;-80
2022/05/20 08:59:56;;;;;;;11.60;9.70;;;;;;;;;;6290073;28;20711;-81
2022/05/20 09:02:57;;;;;;;11.73;9.52;;;;;;;;;;6289068;28;20063;-80
2022/05/20 09:06:09;;;;;;;11.37;9.80;;;;;;;;;;6290248;28;20040;-81
2022/05/20 09:09:14;;;;;;;12.80;9.18;;;;;;;;;;6290312;28;20041;-83
2022/05/20 09:12:37;;;;;;;10.48;8.80;;;;;;;;;;6286302;28;20448;-81
2022/05/20 09:15:49;;;;;;;8.48;7.55;;;;;;;;;;6287908;28;20036;-82
2022/05/20 09:19:08;;;;;;;10.97;9.17;;;;;;;;;;6291615;28;20036;-82
2022/05/20 09:22:14;;;;;;;10.05;7.72;;;;;;;;;;6286918;28;20053;-81
2022/05/20 09:25:23;;;;;;;13.25;9.10;;;;;;;;;;6288746;28;20052;-82
2022/05/20 09:28:29;;;;;;;10.00;8.65;;;;;;;;;;6288097;28;20048;-82
2022/05/20 09:31:38;;;;;;;11.20;9.57;;;;;;;;;;6282547;28;20045;-81
2022/05/20 09:34:42;;;;;;;11.25;7.93;;;;;;;;;;6270911;28;20104;-82
2022/05/20 09:37:50;;;;;;;8.98;7.40;;;;;;;;;;6289718;28;20045;-81
2022/05/20 09:40:51;;;;;;;11.90;7.55;;;;;;;;;;6286325;28;20040;-79
2022/05/20 09:43:58;;;;;;;9.37;8.00;;;;;;;;;;6287003;28;20587;-80
2022/05/20 09:47:08;;;;;;;9.50;8.50;;;;;;;;;;6292513;28;20044;-80
2022/05/20 09:50:31;;;;;;;8.90;8.00;;;;;;;;;;6284001;28;20048;-80
2022/05/20 09:53:39;;;;;;;10.23;8.45;;;;;;;;;;6284729;28;20113;-79
2022/05/20 09:56:45;;;;;;;9.38;8.38;;;;;;;;;;6287071;28;20061;-79
2022/05/20 10:00:00;;;;;;;8.93;8.02;;;;;;;;;;6287198;28;20109;-78
2022/05/20 10:03:22;;;;;;;9.00;8.10;;;;;;;;;;6285970;28;20059;-80
2022/05/20 10:06:41;;;;;;;9.67;8.10;;;;;;;;;;6285258;28;20417;-79
2022/05/20 10:09:52;;;;;;;9.65;8.15;;;;;;;;;;6292349;28;20528;-79
2022/05/20 10:12:57;;;;;;;9.63;7.55;;;;;;;;;;6291522;28;20155;-79
2022/05/20 10:16:14;;;;;;;8.40;7.55;;;;;;;;;;6292238;28;20207;-79
2022/05/20 10:19:25;;;;;;;9.20;7.18;;;;;;;;;;6291575;28;20047;-79
2022/05/20 10:22:39;;;;;;;7.85;7.15;;;;;;;;;;6304023;28;20045;-79
2022/05/20 10:25:49;;;;;;;7.60;6.70;;;;;;;;;;6282668;28;20083;-79
2022/05/20 10:32:52;;;;;;;7.20;6.47;;;;;;;;;;6284657;28;20044;-80
2022/05/20 10:36:02;;;;;;;7.47;6.05;;;;;;;;;;6289009;28;20155;-80
2022/05/20 10:39:22;;;;;;;5.57;5.07;;;;;;;;;;6292208;28;20476;-80
2022/05/20 10:43:14;;;;;;;6.35;4.63;;;;;;;;;;6296564;28;20040;-80
2022/05/20 10:50:20;;;;;;;6.53;4.53;;;;;;;;;;6289533;28;20413;-82
2022/05/20 10:53:35;;;;;;;6.30;4.88;;;;;;;;;;6290655;28;20417;-82
2022/05/20 10:57:14;;;;;;;6.80;5.10;;;;;;;;;;6288380;28;20108;-80
2022/05/20 11:00:19;;;;;;;6.28;5.13;;;;;;;;;;6284009;28;20052;-80
2022/05/20 11:03:44;;;;;;;7.13;5.18;;;;;;;;;;6290041;28;20044;-81
2022/05/20 11:06:55;;;;;;;9.30;5.70;;;;;;;;;;6294594;28;20118;-80
2022/05/20 11:10:24;;;;;;;6.50;5.70;;;;;;;;;;6285273;28;20077;-80
2022/05/20 11:13:58;;;;;;;7.15;5.57;;;;;;;;;;6289032;28;20182;-77
2022/05/20 11:17:17;;;;;;;8.50;6.18;;;;;;;;;;6292781;28;20142;-79
2022/05/20 11:20:50;;;;;;;6.95;5.80;;;;;;;;;;6302172;28;20755;-78
2022/05/20 11:24:10;;;;;;;6.88;5.88;;;;;;;;;;6283514;28;20048;-80
2022/05/20 11:27:24;;;;;;;6.45;5.57;;;;;;;;;;6297107;28;20062;-79
2022/05/20 11:31:10;;;;;;;6.20;5.60;;;;;;;;;;6308154;28;20094;-80
2022/05/20 11:34:40;;;;;;;7.50;6.30;;;;;;;;;;6306461;28;20535;-80
2022/05/20 11:37:57;;;;;;;7.25;5.93;;;;;;;;;;6280918;28;20052;-78
2022/05/20 11:40:58;;;;;;;7.90;5.70;;;;;;;;;;6282114;28;20053;-79
2022/05/20 11:44:27;;;;;;;8.37;6.10;;;;;;;;;;6282247;28;20040;-79
2022/05/20 11:47:58;;;;;;;7.47;6.13;;;;;;;;;;6280290;28;20135;-80
2022/05/20 11:51:18;;;;;;;8.88;5.90;;;;;;;;;;6226791;28;20064;-78
2022/05/20 11:54:24;;;;;;;8.25;5.72;;;;;;;;;;6237450;28;20079;-79
2022/05/20 11:57:32;;;;;;;8.90;5.53;;;;;;;;;;6280159;28;20213;-79
2022/05/20 12:00:39;;;;;;;6.53;5.35;;;;;;;;;;6282606;28;20040;-77
2022/05/20 12:07:09;;;;;;;6.32;5.38;;;;;;;;;;6315993;28;20051;-79
2022/05/20 12:10:40;;;;;;;8.85;6.50;;;;;;;;;;6293098;28;20097;-80
2022/05/20 12:14:07;;;;;;;8.77;6.22;;;;;;;;;;6310821;28;20051;-79
2022/05/20 12:17:10;;;;;;;7.45;6.63;;;;;;;;;;6310241;28;20204;-78
2022/05/20 12:27:21;;;;;;;7.22;5.80;;;;;;;;;;6229340;28;20104;-78
2022/05/20 12:30:34;;;;;;;9.75;5.82;;;;;;;;;;6297210;28;20466;-79
2022/05/20 12:34:05;;;;;;;8.05;6.28;;;;;;;;;;6281564;28;20064;-78
2022/05/20 12:37:07;;;;;;;9.07;5.65;;;;;;;;;;6276403;28;20068;-77
2022/05/20 12:40:38;;;;;;;7.23;6.20;;;;;;;;;;6285621;28;20048;-78
2022/05/20 12:43:47;;;;;;;7.43;5.68;;;;;;;;;;6313199;28;20089;-79
2022/05/20 12:47:13;;;;;;;7.93;6.05;;;;;;;;;;6318651;28;20166;-79
2022/05/20 12:50:15;;;;;;;7.57;6.30;;;;;;;;;;6331706;28;20100;-78
2022/05/20 12:53:17;;;;;;;8.10;6.18;;;;;;;;;;6317854;28;20141;-78
2022/05/20 12:56:29;;;;;;;8.35;6.22;;;;;;;;;;6321919;28;20113;-79
2022/05/20 12:59:31;;;;;;;10.07;6.50;;;;;;;;;;6310416;28;20052;-79
2022/05/20 13:02:36;;;;;;;8.65;6.88;;;;;;;;;;6308964;28;20119;-79
2022/05/20 13:05:50;;;;;;;9.95;7.50;;;;;;;;;;6291331;28;20052;-79
2022/05/20 13:09:03;;;;;;;9.45;6.95;;;;;;;;;;6310483;28;20044;-79
2022/05/20 13:12:08;;;;;;;7.85;6.40;;;;;;;;;;6307634;28;20386;-81
2022/05/20 13:15:11;;;;;;;8.60;6.32;;;;;;;;;;6285971;28;20053;-80
2022/05/20 13:18:25;;;;;;;8.93;6.90;;;;;;;;;;6281130;28;20182;-80
2022/05/20 13:21:28;;;;;;;9.18;6.60;;;;;;;;;;6283341;28;20029;-79
2022/05/20 13:24:35;;;;;;;9.45;7.10;;;;;;;;;;6284033;28;20058;-80
2022/05/20 13:27:44;;;;;;;10.88;7.43;;;;;;;;;;6263953;28;20090;-80
2022/05/20 13:30:46;;;;;;;8.13;7.00;;;;;;;;;;6280370;28;20040;-79
2022/05/20 13:33:48;;;;;;;10.43;7.03;;;;;;;;;;6284991;28;20143;-79
2022/05/20 13:36:50;;;;;;;10.80;8.10;;;;;;;;;;6284526;28;20181;-81
2022/05/20 13:39:53;;;;;;;;;;;;;;;;;;6263558;28;20098;-79
2022/05/20 13:42:58;;;;;;;11.80;8.27;;;;;;;;;;6320489;28;19927;-79
2022/05/20 13:49:26;;;;;;;14.75;9.55;;;;;;;;;;6305217;28;20047;-80
2022/05/20 13:52:28;;;;;;;14.27;9.65;;;;;;;;;;6314816;28;20052;-79
2022/05/20 13:55:32;;;;;;;;;;;;;;;;;;6307679;28;20041;-80
2022/05/20 13:58:35;;;;;;;11.95;9.07;;;;;;;;;;6290178;28;19921;-80
2022/05/20 14:01:38;;;;;;;14.23;9.32;;;;;;;;;;6280894;28;20847;-80
2022/05/20 14:04:49;;;;;;;13.40;9.30;;;;;;;;;;6320098;28;20036;-80
2022/05/20 14:07:53;;;;;;;12.27;9.40;;;;;;;;;;6312212;28;20102;-80
2022/05/20 14:10:56;;;;;;;14.43;9.20;;;;;;;;;;6313108;28;20046;-80
2022/05/20 14:14:02;;;;;;;14.05;10.48;;;;;;;;;;6305037;28;20052;-79
2022/05/20 14:17:07;;;;;;;11.95;10.30;;;;;;;;;;6307210;28;20077;-80
2022/05/20 14:20:15;;;;;;;11.23;9.23;;;;;;;;;;6333965;28;20039;-80
2022/05/20 14:23:20;;;;;;;12.63;10.20;;;;;;;;;;6285492;28;20099;-80
2022/05/20 14:26:29;;;;;;;13.68;10.50;;;;;;;;;;6294338;28;20127;-80
2022/05/20 14:29:35;;;;;;;14.77;10.27;;;;;;;;;;6336719;28;20043;-80
2022/05/20 14:32:37;;;;;;;14.88;11.93;;;;;;;;;;6305490;28;20052;-78
2022/05/20 14:35:45;;;;;;;15.32;10.57;;;;;;;;;;6312575;28;20047;-80
2022/05/20 14:38:51;;;;;;;14.05;9.80;;;;;;;;;;6312810;28;20074;-80
2022/05/20 14:42:09;;;;;;;13.45;10.20;;;;;;;;;;6321626;28;20067;-77
2022/05/20 14:45:31;;;;;;;15.20;10.93;;;;;;;;;;6316625;28;20040;-80
2022/05/20 14:48:38;;;;;;;13.03;9.40;;;;;;;;;;6308323;28;20133;-78
2022/05/20 14:52:01;;;;;;;15.18;9.82;;;;;;;;;;6311876;28;20100;-79
2022/05/20 14:55:06;;;;;;;11.88;10.13;;;;;;;;;;6311282;28;20044;-77
2022/05/20 14:58:20;;;;;;;14.60;10.30;;;;;;;;;;6324666;28;20372;-80
2022/05/20 15:01:29;;;;;;;16.13;11.20;;;;;;;;;;6335274;28;20403;-79
2022/05/20 15:04:31;;;;;;;14.50;10.85;;;;;;;;;;6334560;28;20043;-80
2022/05/20 15:07:34;;;;;;;15.90;10.88;;;;;;;;;;6312490;28;20523;-78
2022/05/20 15:10:36;;;;;;;15.52;10.43;;;;;;;;;;6308980;28;20123;-79
2022/05/20 15:13:38;;;;;;;14.07;11.48;;;;;;;;;;6307563;28;20104;-79
2022/05/20 15:16:39;;;;;;;15.63;10.48;;;;;;;;;;6303352;28;20135;-78
2022/05/20 15:19:41;;;;;;;14.02;11.18;;;;;;;;;;6303450;28;20508;-79
2022/05/20 15:22:42;;;;;;;16.33;11.38;;;;;;;;;;6289820;28;20518;-78
2022/05/20 15:25:47;;;;;;;12.30;10.38;;;;;;;;;;6308392;28;20040;-78
2022/05/20 15:28:49;;;;;;;14.20;11.15;;;;;;;;;;6324730;28;20461;-79
2022/05/20 15:35:11;;;;;;;15.43;11.23;;;;;;;;;;6312113;28;20123;-79
2022/05/20 15:38:13;;;;;;;13.47;9.97;;;;;;;;;;6311049;28;20051;-78
2022/05/20 15:41:14;;;;;;;12.60;10.52;;;;;;;;;;6290559;28;20039;-80
2022/05/20 15:44:16;;;;;;;18.13;10.80;;;;;;;;;;6317424;28;20383;-80
2022/05/20 15:47:19;;;;;;;13.50;11.83;;;;;;;;;;6309845;28;20535;-78
2022/05/20 15:50:22;;;;;;;;;;;;;;;;;;6294693;28;20051;-78
2022/05/20 15:53:23;;;;;;;14.93;11.90;;;;;;;;;;6312062;28;20750;-80
2022/05/20 15:56:25;;;;;;;13.75;10.85;;;;;;;;;;6310523;28;20074;-81
2022/05/20 15:59:34;;;;;;;15.80;11.33;;;;;;;;;;6310610;28;20098;-82
2022/05/20 16:02:39;;;;;;;15.80;11.48;;;;;;;;;;6292994;28;20075;-80
2022/05/20 16:05:41;;;;;;;25.10;12.32;;;;;;;;;;6309208;28;20055;-79
2022/05/20 16:08:45;;;;;;;20.07;11.57;;;;;;;;;;6284063;28;20044;-79
2022/05/20 16:11:48;;;;;;;10.57;8.00;;;;;;;;;;6292781;28;20044;-79
2022/05/20 16:14:50;;;;;;;7.05;3.28;;;;;;;;;;6312467;28;20528;-78
2022/05/20 16:17:54;;;;;;;8.32;2.78;;;;;;;;;;6317110;28;20123;-80
2022/05/20 16:20:57;;;;;;;2.20;1.17;;;;;;;;;;6331782;28;20063;-81
2022/05/20 16:24:05;;;;;;;4.50;1.00;;;;;;;;;;6292289;28;20505;-80
2022/05/20 16:27:07;;;;;;;1.55;1.20;;;;;;;;;;6284531;28;20413;-82
2022/05/20 16:30:11;;;;;;;;;;;;;;;;;;6308735;28;20036;-80
2022/05/20 16:33:13;;;;;;;2.22;1.33;;;;;;;;;;6307141;28;19923;-81
2022/05/20 16:36:18;;;;;;;2.97;1.30;;;;;;;;;;6303812;28;20055;-80
2022/05/20 16:39:20;;;;;;;5.60;1.40;;;;;;;;;;6286572;28;20117;-80
2022/05/20 16:42:24;;;;;;;3.25;1.40;;;;;;;;;;6277555;28;20051;-80
2022/05/20 16:45:29;;;;;;;3.10;1.23;;;;;;;;;;6312387;28;20043;-82
2022/05/20 16:48:52;;;;;;;2.28;1.27;;;;;;;;;;6291176;28;20614;-81
2022/05/20 16:51:59;;;;;;;5.57;1.35;;;;;;;;;;6292287;28;20051;-80
2022/05/20 16:55:04;;;;;;;2.10;1.30;;;;;;;;;;6290108;28;20059;-81
2022/05/20 17:01:48;;;;;;;2.97;1.45;;;;;;;;;;6275452;28;20063;-81
2022/05/20 17:04:49;;;;;;;2.63;1.52;;;;;;;;;;6285261;28;20045;-81
2022/05/20 17:07:54;;;;;;;2.40;1.30;;;;;;;;;;6298126;28;20040;-80
2022/05/20 17:10:55;;;;;;;2.13;1.30;;;;;;;;;;6293898;28;20097;-81
2022/05/20 17:14:17;;;;;;;2.50;1.52;;;;;;;;;;6288405;28;21487;-80
2022/05/20 17:17:19;;;;;;;4.20;1.80;;;;;;;;;;6289401;28;20060;-81
2022/05/20 17:20:21;;;;;;;6.68;2.17;;;;;;;;;;6287102;28;20044;-81
2022/05/20 17:26:42;;;;;;;5.53;2.72;;;;;;;;;;6287208;28;20463;-80
2022/05/20 17:29:45;;;;;;;4.88;2.47;;;;;;;;;;6286815;28;20045;-79
2022/05/20 17:32:46;;;;;;;4.60;2.63;;;;;;;;;;6285539;28;20420;-80
2022/05/20 17:35:49;;;;;;;6.82;3.30;;;;;;;;;;6285180;28;20134;-82
2022/05/20 17:38:50;;;;;;;6.05;3.28;;;;;;;;;;6285214;28;20059;-82
2022/05/20 17:41:52;;;;;;;7.25;3.20;;;;;;;;;;6276008;28;20041;-80
2022/05/20 17:44:55;;;;;;;9.00;3.58;;;;;;;;;;6276633;28;20159;-79
2022/05/20 17:47:57;;;;;;;4.25;2.90;;;;;;;;;;6291564;28;20047;-78
2022/05/20 17:50:59;;;;;;;6.28;3.10;;;;;;;;;;6273147;28;20056;-78
2022/05/20 17:54:01;;;;;;;4.72;2.97;;;;;;;;;;6276524;28;20080;-77
2022/05/20 17:57:03;;;;;;;5.07;2.53;;;;;;;;;;6274859;28;20403;-78
2022/05/20 18:00:07;;;;;;;6.25;2.95;;;;;;;;;;6278263;28;20106;-79
2022/05/20 18:03:12;;;;;;;5.40;2.60;;;;;;;;;;6281209;28;20093;-79
2022/05/20 18:06:18;;;;;;;4.68;2.85;;;;;;;;;;6291272;28;20051;-79
2022/05/20 18:09:21;;;;;;;7.25;2.67;;;;;;;;;;6278951;28;20136;-78
2022/05/20 18:12:24;;;;;;;4.82;2.75;;;;;;;;;;6283764;28;20047;-79
2022/05/20 18:15:25;;;;;;;4.18;2.20;;;;;;;;;;6304715;28;20086;-78
2022/05/20 18:18:27;;;;;;;3.90;2.53;;;;;;;;;;6289878;28;20096;-80
2022/05/20 18:21:29;;;;;;;4.15;2.53;;;;;;;;;;6296448;28;20578;-80
2022/05/20 18:24:44;;;;;;;4.15;2.67;;;;;;;;;;6286116;28;20087;-78
2022/05/20 18:27:46;;;;;;;5.15;2.75;;;;;;;;;;6280008;28;20044;-77
2022/05/20 18:30:47;;;;;;;2.92;2.28;;;;;;;;;;6286378;28;20075;-78
2022/05/20 18:33:49;;;;;;;2.67;1.90;;;;;;;;;;6287753;28;20482;-78
2022/05/20 18:40:12;;;;;;;5.75;2.35;;;;;;;;;;6285071;28;20182;-79
2022/05/20 18:43:14;;;;;;;;;;;;;;;;;;6283847;28;20047;-78
2022/05/20 18:46:16;;;;;;;2.75;2.10;;;;;;;;;;6287279;28;19931;-79
2022/05/20 18:49:18;;;;;;;3.10;2.30;;;;;;;;;;6290364;28;20086;-77
2022/05/20 18:52:23;;;;;;;3.95;2.20;;;;;;;;;;6289218;28;20048;-78
2022/05/20 18:55:26;;;;;;;4.45;2.92;;;;;;;;;;6288265;28;20890;-81
2022/05/20 18:58:28;;;;;;;3.70;3.10;;;;;;;;;;6287524;28;20033;-79
2022/05/20 19:01:30;;;;;;;4.07;3.03;;;;;;;;;;6287649;28;20433;-78
2022/05/20 19:04:33;;;;;;;4.45;3.03;;;;;;;;;;6287215;28;20048;-80
2022/05/20 19:07:35;;;;;;;3.85;3.00;;;;;;;;;;6287592;28;20123;-80
2022/05/20 19:10:37;;;;;;;4.22;3.17;;;;;;;;;;6288446;28;20044;-79
2022/05/20 19:13:40;;;;;;;3.70;3.13;;;;;;;;;;6287957;28;20127;-79
2022/05/20 19:16:42;;;;;;;3.85;3.28;;;;;;;;;;6291731;28;20052;-77
2022/05/20 19:19:44;;;;;;;5.25;3.33;;;;;;;;;;6291686;28;20114;-77
2022/05/20 19:22:45;;;;;;;4.50;3.63;;;;;;;;;;6291638;28;20482;-76
2022/05/20 19:25:48;;;;;;;4.90;3.38;;;;;;;;;;6273572;28;20040;-80